.
WxDataArchive / Data Records for 2014-04-27
2014-04-26 April 2014 2014-04-28

Data Records for Sunday, 27 April 2014

Time	Temp	Chill	HIndex	Humid	Dewpt	 Wind 	HiWind	WindDir	Rain 	Barom
-----	----	-----	------	-----	-----	------	------	-------	-----	-----
00:00	45.5	43.7	45.5	69	35.9	4	11	90	0.00	30.030 
00:05	45.4	43.6	45.4	70	36.2	4	15	90	0.00	30.030 
00:10	45.2	41.4	45.2	70	36.0	7	13	90	0.00	30.030 
00:15	45.1	43.2	45.1	70	35.9	4	12	90	0.00	30.027 
00:20	44.9	42.2	44.9	70	35.7	5	9	90	0.00	30.027 
00:25	44.6	41.2	44.6	70	35.4	6	12	90	0.00	30.027 
00:30	44.5	41.8	44.5	71	35.7	5	10	90	0.00	30.019 
00:35	44.3	42.3	44.3	71	35.5	4	10	90	0.00	30.019 
00:40	44.2	41.4	44.2	72	35.8	5	11	90	0.00	30.019 
00:45	44.1	41.3	44.1	72	35.7	5	11	90	0.00	30.031 
00:50	44.1	42.1	44.1	73	36.0	4	11	90	0.00	30.031 
00:55	43.9	41.8	43.9	74	36.2	4	10	90	0.00	30.031 
01:00	43.8	41.7	43.8	75	36.4	4	9	90	0.00	30.032 
01:05	43.8	41.7	43.8	75	36.4	4	9	90	0.00	30.032 
01:10	43.8	40.9	43.8	76	36.7	5	9	90	0.00	30.032 
01:15	43.6	39.5	43.6	76	36.5	7	13	90	0.00	30.033 
01:20	43.6	40.7	43.6	77	36.9	5	14	90	0.00	30.033 
01:25	43.5	40.6	43.5	77	36.8	5	14	90	0.00	30.033 
01:30	43.2	38.5	43.2	78	36.8	8	16	90	0.00	30.041 
01:35	43.1	39.5	43.1	78	36.7	6	11	90	0.00	30.041 
01:40	42.9	39.9	42.9	78	36.5	5	11	90	0.00	30.041 
01:45	42.8	40.6	42.8	79	36.7	4	9	112	0.00	30.048 
01:50	42.6	39.5	42.6	79	36.6	5	16	90	0.00	30.048 
01:55	42.5	38.2	42.5	77	35.8	7	14	90	0.00	30.048 
02:00	42.3	38.5	42.3	77	35.6	6	15	90	0.00	30.049 
02:05	42.2	38.4	42.2	77	35.5	6	16	90	0.00	30.049 
02:10	41.9	36.9	41.9	77	35.2	8	16	90	0.00	30.049 
02:15	41.8	38.6	41.8	77	35.1	5	11	112	0.00	30.059 
02:20	41.6	38.4	41.6	78	35.3	5	10	90	0.00	30.059 
02:25	41.3	38.0	41.3	78	35.0	5	12	90	0.00	30.059 
02:30	41.2	37.9	41.2	79	35.2	5	11	112	0.00	30.065 
02:35	41.1	37.8	41.1	80	35.4	5	10	90	0.00	30.065 
02:40	40.9	37.5	40.9	80	35.2	5	13	112	0.00	30.065 
02:45	40.9	37.5	40.9	80	35.2	5	9	90	0.00	30.060 
02:50	40.8	38.2	40.8	81	35.4	4	7	90	0.00	30.060 
02:55	40.6	40.6	40.6	81	35.2	3	9	90	0.00	30.060 
03:00	40.5	40.5	40.5	82	35.4	3	7	90	0.00	30.064 
03:05	40.3	37.7	40.3	82	35.2	4	7	90	0.00	30.064 
03:10	40.3	36.8	40.3	81	34.9	5	10	90	0.00	30.064 
03:15	40.2	36.7	40.2	81	34.8	5	13	112	0.00	30.061 
03:20	40.1	36.6	40.1	81	34.7	5	10	90	0.00	30.061 
03:25	40.1	35.9	40.1	80	34.4	6	12	90	0.00	30.061 
03:30	39.9	35.6	39.9	80	34.2	6	13	90	0.00	30.066 
03:35	39.9	36.4	39.9	80	34.2	5	12	112	0.00	30.066 
03:40	39.8	36.2	39.8	81	34.5	5	13	90	0.00	30.066 
03:45	39.8	37.1	39.8	81	34.5	4	10	112	0.00	30.068 
03:50	39.6	36.0	39.6	81	34.3	5	13	90	0.00	30.068 
03:55	39.5	36.7	39.5	81	34.2	4	13	90	0.00	30.068 
04:00	39.5	35.9	39.5	81	34.2	5	11	112	0.00	30.070 
04:05	39.3	35.7	39.3	81	34.0	5	12	90	0.00	30.070 
04:10	39.3	36.5	39.3	81	34.0	4	10	112	0.00	30.070 
04:15	39.2	36.4	39.2	81	33.9	4	12	90	0.00	30.082 
04:20	39.2	35.5	39.2	81	33.9	5	11	90	0.00	30.082 
04:25	39.2	35.5	39.2	81	33.9	5	10	90	0.00	30.082 
04:30	39.2	39.2	39.2	81	33.9	3	8	90	0.00	30.080 
04:35	39.2	36.4	39.2	81	33.9	4	12	90	0.00	30.080 
04:40	39.1	35.4	39.1	81	33.8	5	10	112	0.00	30.080 
04:45	39.1	35.4	39.1	81	33.8	5	11	90	0.00	30.078 
04:50	39.1	36.3	39.1	81	33.8	4	10	90	0.00	30.078 
04:55	38.9	36.0	38.9	81	33.6	4	12	90	0.00	30.078 
05:00	38.9	36.0	38.9	81	33.6	4	9	112	0.00	30.072 
05:05	38.9	36.0	38.9	81	33.6	4	9	90	0.00	30.072 
05:10	38.8	35.9	38.8	81	33.5	4	9	90	0.00	30.072 
05:15	38.8	35.9	38.8	81	33.5	4	9	90	0.00	30.073 
05:20	38.8	35.9	38.8	81	33.5	4	10	90	0.00	30.073 
05:25	38.6	38.6	38.6	81	33.3	3	11	90	0.00	30.073 
05:30	38.6	34.8	38.6	80	33.0	5	11	112	0.00	30.076 
05:35	38.6	35.7	38.6	80	33.0	4	10	112	0.00	30.076 
05:40	38.6	35.7	38.6	80	33.0	4	10	90	0.00	30.076 
05:45	38.6	38.6	38.6	80	33.0	3	6	112	0.00	30.086 
05:50	38.6	38.6	38.6	80	33.0	3	8	135	0.00	30.086 
05:55	38.6	35.7	38.6	80	33.0	4	10	90	0.00	30.086 
06:00	38.6	35.7	38.6	79	32.7	4	11	112	0.00	30.075 
06:05	38.6	35.7	38.6	79	32.7	4	11	90	0.00	30.075 
06:10	38.6	35.7	38.6	79	32.7	4	7	112	0.00	30.075 
06:15	38.8	35.1	38.8	78	32.5	5	12	90	0.00	30.075 
06:20	38.8	35.9	38.8	78	32.5	4	10	90	0.00	30.075 
06:25	38.8	38.8	38.8	78	32.5	3	7	90	0.00	30.075 
06:30	38.8	35.9	38.8	78	32.5	4	6	112	0.00	30.090 
06:35	38.9	38.9	38.9	77	32.3	3	8	90	0.00	30.090 
06:40	38.9	36.0	38.9	77	32.3	4	10	90	0.00	30.090 
06:45	38.9	36.0	38.9	77	32.3	4	11	112	0.00	30.083 
06:50	38.9	35.2	38.9	77	32.3	5	12	90	0.00	30.083 
06:55	39.1	39.1	39.1	77	32.5	3	7	112	0.00	30.083 
07:00	39.1	39.1	39.1	77	32.5	3	11	112	0.00	30.082 
07:05	39.1	36.3	39.1	77	32.5	4	10	112	0.00	30.082 
07:10	39.2	39.2	39.2	77	32.6	2	6	112	0.00	30.082 
07:15	39.2	36.4	39.2	77	32.6	4	8	90	0.00	30.078 
07:20	39.2	36.4	39.2	77	32.6	4	11	90	0.00	30.078 
07:25	39.2	36.4	39.2	76	32.3	4	11	112	0.00	30.078 
07:30	39.2	36.4	39.2	76	32.3	4	11	90	0.00	30.087 
07:35	39.2	36.4	39.2	75	32.0	4	10	112	0.00	30.087 
07:40	39.3	36.5	39.3	75	32.0	4	10	90	0.00	30.087 
07:45	39.3	39.3	39.3	74	31.7	3	11	112	0.00	30.103 
07:50	39.3	35.7	39.3	75	32.0	5	10	90	0.00	30.103 
07:55	39.5	36.7	39.5	75	32.2	4	9	90	0.00	30.103 
08:00	39.5	39.5	39.5	75	32.2	3	7	90	0.00	30.099 
08:05	39.6	36.9	39.6	74	32.0	4	10	90	0.00	30.099 
08:10	39.8	39.8	39.8	74	32.2	3	7	90	0.00	30.099 
08:15	39.8	36.2	39.8	73	31.9	5	12	90	0.00	30.109 
08:20	39.8	36.2	39.8	73	31.9	5	10	90	0.00	30.109 
08:25	39.9	37.2	39.9	73	32.0	4	7	112	0.00	30.109 
08:30	40.1	37.4	40.1	72	31.8	4	7	90	0.00	30.119 
08:35	40.2	37.5	40.2	72	31.9	4	8	90	0.00	30.119 
08:40	40.5	40.5	40.5	72	32.2	3	9	112	0.00	30.119 
08:45	41.1	41.1	41.1	71	32.4	3	6	90	0.00	30.124 
08:50	41.6	37.7	41.6	69	32.2	6	12	90	0.00	30.124 
08:55	41.9	38.0	41.9	68	32.1	6	11	90	0.00	30.124 
09:00	41.8	38.6	41.8	69	32.4	5	11	90	0.00	30.109 
09:05	41.8	38.6	41.8	69	32.4	5	10	90	0.00	30.109 
09:10	41.9	37.4	41.9	69	32.5	7	13	90	0.00	30.109 
09:15	42.2	37.8	42.2	68	32.4	7	15	112	0.00	30.101 
09:20	42.2	37.3	42.2	68	32.4	8	18	90	0.00	30.101 
09:25	42.2	37.8	42.2	69	32.8	7	12	90	0.00	30.101 
09:30	42.1	37.1	42.1	69	32.7	8	14	112	0.00	30.101 
09:35	42.3	39.2	42.3	70	33.2	5	11	90	0.00	30.101 
09:40	42.8	39.1	42.8	69	33.3	6	12	90	0.00	30.101 
09:45	42.8	39.8	42.8	68	33.0	5	11	112	0.00	30.095 
09:50	43.3	40.3	43.3	67	33.1	5	12	90	0.00	30.095 
09:55	44.1	40.6	44.1	66	33.5	6	13	90	0.00	30.095 
10:00	44.6	41.9	44.6	66	34.0	5	11	112	0.00	30.097 
10:05	44.9	41.0	44.9	64	33.5	7	15	90	0.00	30.097 
10:10	45.2	41.4	45.2	63	33.4	7	16	90	0.00	30.097 
10:15	45.2	40.9	45.2	63	33.4	8	16	90	0.00	30.091 
10:20	45.4	41.2	45.4	63	33.6	8	17	90	0.00	30.091 
10:25	45.7	42.5	45.7	63	33.8	6	16	90	0.00	30.091 
10:30	45.8	42.1	45.8	62	33.5	7	12	90	0.00	30.101 
10:35	46.4	43.4	46.4	62	34.1	6	12	90	0.00	30.101 
10:40	46.7	43.2	46.7	62	34.4	7	13	90	0.00	30.101 
10:45	47.0	43.6	47.0	61	34.3	7	14	90	0.00	30.087 
10:50	47.1	44.2	47.1	61	34.4	6	14	90	0.00	30.087 
10:55	47.4	44.1	47.4	61	34.6	7	13	90	0.00	30.087 
11:00	47.4	44.6	47.4	60	34.2	6	13	112	0.00	30.096 
11:05	47.7	44.0	47.7	59	34.1	8	15	90	0.00	30.096 
11:10	48.2	45.5	48.2	60	35.0	6	15	112	0.00	30.096 
11:15	48.0	44.8	48.0	60	34.8	7	12	90	0.00	30.091 
11:20	48.5	45.4	48.5	59	34.8	7	14	90	0.00	30.091 
11:25	48.9	46.4	48.9	60	35.6	6	15	90	0.00	30.091 
11:30	48.9	46.4	48.9	61	36.0	6	12	90	0.00	30.082 
11:35	49.4	47.0	49.4	61	36.5	6	12	90	0.00	30.082 
11:40	49.4	46.0	49.4	59	35.7	8	13	112	0.00	30.082 
11:45	49.8	47.4	49.8	58	35.6	6	12	90	0.00	30.075 
11:50	49.9	47.1	49.9	58	35.7	7	13	90	0.00	30.075 
11:55	49.6	46.3	49.6	58	35.4	8	17	90	0.00	30.075 
12:00	49.4	46.0	49.4	58	35.2	8	15	112	0.00	30.051 
12:05	49.8	46.1	49.8	56	34.7	9	20	112	0.00	30.051 
12:10	50.5	50.5	50.5	58	36.3	8	16	90	0.00	30.051 
12:15	51.0	51.0	51.0	57	36.3	9	21	112	0.00	30.042 
12:20	51.4	51.4	51.4	58	37.1	7	18	90	0.00	30.042 
12:25	51.7	51.7	51.7	57	37.0	8	21	112	0.00	30.042 
12:30	52.2	52.2	52.2	56	37.0	8	15	90	0.00	30.045 
12:35	52.6	52.6	52.6	55	36.9	9	15	112	0.00	30.045 
12:40	52.9	52.9	52.9	55	37.2	7	17	90	0.00	30.045 
12:45	53.3	53.3	53.3	54	37.1	7	14	90	0.00	30.041 
12:50	53.6	53.6	53.6	54	37.4	6	12	112	0.00	30.041 
12:55	53.6	53.6	53.6	55	37.8	6	12	90	0.00	30.041 
13:00	53.5	53.5	53.5	54	37.3	8	15	90	0.00	30.036 
13:05	53.9	53.9	53.9	51	36.2	7	16	90	0.00	30.036 
13:10	54.1	54.1	54.1	51	36.4	7	13	90	0.00	30.036 
13:15	54.4	54.4	54.4	52	37.1	8	15	112	0.00	30.028 
13:20	54.4	54.4	54.4	49	35.6	8	18	112	0.00	30.028 
13:25	54.8	54.8	54.8	53	38.0	6	11	112	0.00	30.028 
13:30	55.7	55.7	55.7	48	36.3	7	17	112	0.00	30.017 
13:35	55.7	55.7	55.7	48	36.3	9	19	112	0.00	30.017 
13:40	55.7	55.7	55.7	49	36.8	7	15	112	0.00	30.017 
13:45	55.7	55.7	55.7	46	35.2	8	18	90	0.00	30.010 
13:50	55.3	55.3	55.3	49	36.5	9	15	112	0.00	30.010 
13:55	55.6	55.6	55.6	46	35.2	8	16	112	0.00	30.010 
14:00	55.7	55.7	55.7	47	35.8	8	14	112	0.00	30.010 
14:05	56.0	56.0	56.0	49	37.1	7	16	112	0.00	30.010 
14:10	56.5	56.5	56.5	46	36.0	8	15	90	0.00	30.010 
14:15	56.3	56.3	56.3	46	35.8	8	14	90	0.00	30.011 
14:20	56.5	56.5	56.5	46	36.0	7	13	90	0.00	30.011 
14:25	56.6	56.6	56.6	46	36.1	8	14	90	0.00	30.011 
14:30	57.3	57.3	57.3	44	35.6	9	16	90	0.00	30.007 
14:35	57.8	57.8	57.8	43	35.5	9	17	112	0.00	30.007 
14:40	57.8	57.8	57.8	42	34.9	8	17	112	0.00	30.007 
14:45	58.1	58.1	58.1	43	35.7	8	16	112	0.00	30.003 
14:50	58.3	58.3	58.3	43	35.9	9	18	112	0.00	30.003 
14:55	58.4	58.4	58.4	40	34.2	9	19	90	0.00	30.003 
15:00	58.4	58.4	58.4	41	34.8	10	20	112	0.00	29.995 
15:05	58.4	58.4	58.4	41	34.8	9	18	90	0.00	29.995 
15:10	58.6	58.6	58.6	41	35.0	7	14	90	0.00	29.995 
15:15	58.0	58.0	58.0	41	34.4	10	20	90	0.00	30.000 
15:20	57.5	57.5	57.5	43	35.2	8	18	90	0.00	30.000 
15:25	57.8	57.8	57.8	42	34.9	8	15	90	0.00	30.000 
15:30	58.3	58.3	58.3	43	35.9	8	18	90	0.00	29.992 
15:35	58.9	58.9	58.9	42	35.9	8	16	112	0.00	29.992 
15:40	59.5	59.5	59.5	39	34.5	7	16	90	0.00	29.992 
15:45	59.6	59.6	59.6	39	34.6	8	17	112	0.00	29.980 
15:50	59.6	59.6	59.6	39	34.6	9	18	90	0.00	29.980 
15:55	59.6	59.6	59.6	39	34.6	8	15	112	0.00	29.980 
16:00	59.2	59.2	59.2	39	34.3	10	16	90	0.00	29.974 
16:05	58.4	58.4	58.4	40	34.2	9	16	90	0.00	29.974 
16:10	58.7	58.7	58.7	39	33.8	7	15	112	0.00	29.974 
16:15	59.2	59.2	59.2	38	33.6	9	19	90	0.00	29.980 
16:20	59.0	59.0	59.0	38	33.4	7	17	90	0.00	29.980 
16:25	59.0	59.0	59.0	37	32.8	8	17	90	0.00	29.980 
16:30	59.2	59.2	59.2	37	32.9	9	20	90	0.00	29.977 
16:35	59.2	59.2	59.2	38	33.6	8	15	112	0.00	29.977 
16:40	59.2	59.2	59.2	38	33.6	8	19	90	0.00	29.977 
16:45	59.3	59.3	59.3	41	35.6	7	16	90	0.00	29.965 
16:50	59.2	59.2	59.2	38	33.6	8	14	112	0.00	29.965 
16:55	59.0	59.0	59.0	37	32.8	8	19	112	0.00	29.965 
17:00	58.6	58.6	58.6	38	33.1	8	16	112	0.00	29.959 
17:05	58.4	58.4	58.4	39	33.5	8	18	112	0.00	29.959 
17:10	58.3	58.3	58.3	39	33.5	8	14	90	0.00	29.959 
17:15	58.3	58.3	58.3	37	32.1	9	17	112	0.00	29.966 
17:20	58.0	58.0	58.0	38	32.5	8	15	112	0.00	29.966 
17:25	58.1	58.1	58.1	38	32.6	7	15	90	0.00	29.966 
17:30	57.8	57.8	57.8	38	32.4	8	14	112	0.00	29.965 
17:35	57.8	57.8	57.8	39	33.0	7	16	112	0.00	29.965 
17:40	57.8	57.8	57.8	39	33.0	7	15	90	0.00	29.965 
17:45	57.5	57.5	57.5	39	32.7	8	17	112	0.00	29.963 
17:50	57.3	57.3	57.3	39	32.6	7	16	112	0.00	29.963 
17:55	57.0	57.0	57.0	40	32.9	8	18	112	0.00	29.963 
18:00	56.7	56.7	56.7	41	33.3	7	12	112	0.00	29.961 
18:05	56.6	56.6	56.6	41	33.2	7	17	90	0.00	29.961 
18:10	56.3	56.3	56.3	42	33.5	8	17	112	0.00	29.961 
18:15	56.3	56.3	56.3	41	32.9	7	16	112	0.00	29.964 
18:20	56.2	56.2	56.2	42	33.4	6	13	90	0.00	29.964 
18:25	56.0	56.0	56.0	41	32.6	7	13	90	0.00	29.964 
18:30	55.7	55.7	55.7	42	33.0	8	15	112	0.00	29.964 
18:35	55.6	55.6	55.6	42	32.9	6	12	112	0.00	29.964 
18:40	55.3	55.3	55.3	43	33.2	5	15	90	0.00	29.964 
18:45	55.1	55.1	55.1	43	33.0	5	14	90	0.00	29.969 
18:50	54.8	54.8	54.8	44	33.3	7	16	112	0.00	29.969 
18:55	54.7	54.7	54.7	44	33.2	6	12	112	0.00	29.969 
19:00	54.7	54.7	54.7	44	33.2	6	13	112	0.00	29.978 
19:05	54.4	54.4	54.4	44	32.9	6	12	112	0.00	29.978 
19:10	54.1	54.1	54.1	44	32.7	7	16	112	0.00	29.978 
19:15	53.8	53.8	53.8	44	32.4	7	13	90	0.00	29.978 
19:20	53.6	53.6	53.6	45	32.8	6	14	112	0.00	29.978 
19:25	53.5	53.5	53.5	46	33.2	6	14	90	0.00	29.978 
19:30	53.2	53.2	53.2	46	33.0	5	12	90	0.00	29.984 
19:35	52.9	52.9	52.9	46	32.7	7	17	112	0.00	29.984 
19:40	52.8	52.8	52.8	47	33.1	5	11	112	0.00	29.984 
19:45	52.5	52.5	52.5	47	32.9	5	12	112	0.00	29.991 
19:50	52.3	52.3	52.3	47	32.7	6	11	112	0.00	29.991 
19:55	52.0	52.0	52.0	48	32.9	6	15	90	0.00	29.991 
20:00	51.7	51.7	51.7	49	33.2	7	16	112	0.00	29.995 
20:05	51.6	51.6	51.6	49	33.1	5	15	112	0.00	29.995 
20:10	51.3	51.3	51.3	50	33.3	5	10	112	0.00	29.995 
20:15	51.1	51.1	51.1	50	33.1	4	12	90	0.00	29.994 
20:20	50.8	50.8	50.8	50	32.8	5	11	90	0.00	29.994 
20:25	50.7	50.7	50.7	50	32.7	4	13	90	0.00	29.994 
20:30	50.5	50.5	50.5	51	33.1	4	9	112	0.00	30.002 
20:35	50.2	50.2	50.2	52	33.3	6	13	112	0.00	30.002 
20:40	49.8	48.0	49.8	53	33.4	5	13	112	0.00	30.002 
20:45	49.5	47.1	49.5	54	33.6	6	14	112	0.00	29.997 
20:50	49.2	46.7	49.2	54	33.3	6	12	90	0.00	29.997 
20:55	48.9	46.9	48.9	54	33.0	5	12	112	0.00	29.997 
21:00	48.6	47.3	48.6	54	32.7	4	14	112	0.00	29.999 
21:05	48.3	45.6	48.3	54	32.4	6	17	112	0.00	29.999 
21:10	48.2	45.5	48.2	54	32.3	6	17	112	0.00	29.999 
21:15	48.0	45.3	48.0	54	32.2	6	14	112	0.00	30.003 
21:20	47.9	45.8	47.9	54	32.1	5	15	90	0.00	30.003 
21:25	47.7	45.5	47.7	54	31.9	5	12	112	0.00	30.003 
21:30	47.7	44.9	47.7	54	31.9	6	15	112	0.00	30.004 
21:35	47.6	45.4	47.6	54	31.8	5	12	90	0.00	30.004 
21:40	47.4	45.2	47.4	54	31.6	5	12	112	0.00	30.004 
21:45	47.4	45.9	47.4	55	32.1	4	13	112	0.00	29.991 
21:50	47.3	43.9	47.3	54	31.5	7	13	112	0.00	29.991 
21:55	47.3	45.0	47.3	53	31.0	5	12	112	0.00	29.991 
22:00	47.3	43.9	47.3	52	30.6	7	15	90	0.00	30.002 
22:05	47.1	44.2	47.1	51	29.9	6	10	90	0.00	30.002 
22:10	47.1	43.7	47.1	51	29.9	7	14	90	0.00	30.002 
22:15	47.1	44.2	47.1	52	30.4	6	15	90	0.00	29.999 
22:20	47.0	44.1	47.0	52	30.3	6	12	90	0.00	29.999 
22:25	46.8	43.3	46.8	51	29.6	7	16	112	0.00	29.999 
22:30	46.8	43.9	46.8	51	29.6	6	15	90	0.00	29.987 
22:35	46.7	45.1	46.7	51	29.5	4	12	90	0.00	29.987 
22:40	46.7	43.7	46.7	50	29.1	6	17	112	0.00	29.987 
22:45	46.7	43.7	46.7	50	29.1	6	14	112	0.00	29.981 
22:50	46.7	44.3	46.7	51	29.5	5	12	90	0.00	29.981 
22:55	46.5	43.5	46.5	50	28.9	6	18	112	0.00	29.981 
23:00	46.5	43.5	46.5	50	28.9	6	13	90	0.00	29.967 
23:05	46.4	44.0	46.4	51	29.3	5	10	90	0.00	29.967 
23:10	46.4	42.9	46.4	50	28.8	7	18	112	0.00	29.967 
23:15	46.4	44.0	46.4	50	28.8	5	9	90	0.00	29.955 
23:20	46.2	43.1	46.2	50	28.6	6	13	90	0.00	29.955 
23:25	46.2	44.5	46.2	50	28.6	4	11	90	0.00	29.955 
23:30	46.2	43.1	46.2	50	28.6	6	13	90	0.00	29.953 
23:35	46.2	43.1	46.2	50	28.6	6	14	90	0.00	29.953 
23:40	46.2	42.6	46.2	50	28.6	7	14	112	0.00	29.953 
23:45	46.2	43.1	46.2	50	28.6	6	18	112	0.00	29.949 
23:50	46.2	42.6	46.2	50	28.6	7	14	112	0.00	29.949 
23:55	46.2	43.1	46.2	50	28.6	6	15	112	0.00	29.949 

CoCoRaHS
IN-AL-39
A2 Web Hosting
Creative Commons License
GoDaddy
search engine by freefind advanced

loaded 2018-11-17 13:05:32 • last modified 2010-11-18 10:43:29
Privacy PolicyDisclaimer
• wx.awcolley.com is powered by PmWiki v.2002016 •
• all content (unless otherwise noted) © 2018 A W Colley